Time;durP1;ratioP1;P1;durP2;ratioP2;P2;SDS_P1;SDS_P2;PMS_P1;PMS_P2;Temp;Humidity;BMP_temperature;BMP_pressure;BME280_temperature;BME280_humidity;BME280_pressure;Samples;Min_cycle;Max_cycle;Signal;HPM_P1;HPM_P2
2023/03/20 00:02:04;;;;;;;5.10;4.50;;;7.40;99.90;;;;;;6216595;23;20427;-90
2023/03/20 00:04:54;;;;;;;5.10;4.60;;;7.40;99.90;;;;;;6218114;23;20342;-90
2023/03/20 00:07:43;;;;;;;9.82;5.15;;;7.40;99.90;;;;;;6217788;23;20024;-90
2023/03/20 00:10:39;;;;;;;5.50;4.68;;;7.40;99.90;;;;;;6219259;23;20048;-92
2023/03/20 00:13:29;;;;;;;5.72;4.43;;;7.40;99.90;;;;;;6216975;23;20028;-90
2023/03/20 00:16:23;;;;;;;6.93;4.93;;;7.40;99.90;;;;;;6216806;23;20324;-90
2023/03/20 00:19:25;;;;;;;4.90;4.13;;;7.40;99.90;;;;;;6218062;23;20374;-90
2023/03/20 00:22:12;;;;;;;6.82;4.53;;;7.40;99.90;;;;;;6218120;23;20024;-89
2023/03/20 00:24:59;;;;;;;6.35;4.22;;;7.30;99.90;;;;;;6218599;23;20324;-89
2023/03/20 00:27:50;;;;;;;6.30;4.38;;;7.30;99.90;;;;;;6217927;23;20035;-89
2023/03/20 00:30:43;;;;;;;6.00;3.85;;;7.30;99.90;;;;;;6218069;23;20301;-87
2023/03/20 00:33:32;;;;;;;4.28;3.70;;;7.30;99.90;;;;;;6219083;23;20029;-91
2023/03/20 00:36:23;;;;;;;4.57;3.17;;;7.30;99.90;;;;;;6216035;23;20028;-90
2023/03/20 00:39:11;;;;;;;4.28;3.35;;;7.40;99.90;;;;;;6219390;23;20033;-90
2023/03/20 00:42:05;;;;;;;5.75;3.10;;;7.40;99.90;;;;;;6218484;23;20024;-91
2023/03/20 00:45:05;;;;;;;;;;;;;;;;;;;;;
2023/03/20 00:48:00;;;;;;;3.38;2.88;;;7.40;99.90;;;;;;6218889;23;20016;-90
2023/03/20 00:50:52;;;;;;;2.97;2.72;;;7.50;60.10;;;;;;6216265;23;20039;-88
2023/03/20 00:53:42;;;;;;;2.50;2.30;;;7.50;3.40;;;;;;6219235;23;20033;-90
2023/03/20 00:56:34;;;;;;;2.00;1.83;;;7.50;1.00;;;;;;6216534;23;20028;-91
2023/03/20 00:59:34;;;;;;;3.60;1.90;;;7.60;99.90;;;;;;6216621;23;20047;-91
2023/03/20 01:02:25;;;;;;;1.92;1.70;;;7.50;27.60;;;;;;6219796;23;20130;-90
2023/03/20 01:05:16;;;;;;;1.80;1.70;;;7.50;99.90;;;;;;6217254;23;20025;-91
2023/03/20 01:08:24;;;;;;;2.85;1.60;;;7.50;1.00;;;;;;6219247;23;20321;-91
2023/03/20 01:11:12;;;;;;;3.20;1.83;;;7.50;99.90;;;;;;6220788;23;20028;-90
2023/03/20 01:14:13;;;;;;;1.63;1.50;;;7.50;1.00;;;;;;6227637;23;20013;-90
2023/03/20 01:17:03;;;;;;;2.20;1.40;;;7.50;99.90;;;;;;6240298;23;20025;-88
2023/03/20 01:19:54;;;;;;;1.48;1.38;;;7.50;1.00;;;;;;6241499;23;20017;-85
2023/03/20 01:22:45;;;;;;;1.30;1.20;;;7.50;99.90;;;;;;6242767;22;20013;-86
2023/03/20 01:25:39;;;;;;;2.83;1.35;;;7.50;68.60;;;;;;6241574;23;20035;-84
2023/03/20 01:28:31;;;;;;;1.25;1.15;;;7.50;99.90;;;;;;6230400;23;20087;-90
2023/03/20 01:31:20;;;;;;;1.45;1.02;;;7.50;1.00;;;;;;6231637;23;20039;-88
2023/03/20 01:34:11;;;;;;;1.15;1.08;;;7.50;1.00;;;;;;6227731;23;20088;-90
2023/03/20 01:37:17;;;;;;;1.42;1.02;;;7.40;99.90;;;;;;6217802;23;20042;-88
2023/03/20 01:40:29;;;;;;;1.00;0.95;;;7.40;99.90;;;;;;6226632;23;20054;-88
2023/03/20 01:43:19;;;;;;;3.08;1.10;;;7.30;99.90;;;;;;6224475;23;20090;-87
2023/03/20 01:46:24;;;;;;;1.30;1.20;;;7.30;99.90;;;;;;6218493;23;20084;-91
2023/03/20 01:49:28;;;;;;;;;;;;;;;;;;;;;
2023/03/20 01:52:15;;;;;;;2.00;1.00;;;7.30;23.50;;;;;;6218859;23;20046;-90
2023/03/20 01:55:05;;;;;;;0.85;0.80;;;7.20;1.00;;;;;;6220609;23;20031;-87
2023/03/20 01:57:56;;;;;;;1.83;1.20;;;7.30;1.00;;;;;;6221130;23;20043;-89
2023/03/20 02:00:49;;;;;;;1.30;1.00;;;7.30;1.00;;;;;;6218149;23;20031;-90
2023/03/20 02:03:37;;;;;;;1.10;1.00;;;7.20;99.90;;;;;;6217580;23;20102;-90
2023/03/20 02:06:25;;;;;;;1.42;0.90;;;7.20;99.90;;;;;;6220243;23;20024;-90
2023/03/20 02:09:15;;;;;;;0.82;0.82;;;7.20;99.90;;;;;;6220878;23;20076;-91
2023/03/20 02:12:07;;;;;;;0.85;0.85;;;7.30;99.90;;;;;;6222468;23;20028;-91
2023/03/20 02:14:55;;;;;;;0.98;0.88;;;7.30;99.90;;;;;;6232388;23;20029;-91
2023/03/20 02:17:45;;;;;;;0.80;0.80;;;7.30;99.90;;;;;;6237588;22;20051;-90
2023/03/20 02:20:58;;;;;;;1.77;1.05;;;7.30;99.90;;;;;;6229571;23;20027;-90
2023/03/20 02:24:03;;;;;;;0.95;0.93;;;7.30;99.90;;;;;;6222698;23;20025;-90
2023/03/20 02:27:25;;;;;;;1.88;0.90;;;7.30;35.80;;;;;;6226479;23;20063;-91
2023/03/20 02:30:37;;;;;;;2.60;1.10;;;7.30;17.70;;;;;;6235026;23;20059;-89
2023/03/20 02:33:44;;;;;;;1.58;1.13;;;7.30;22.30;;;;;;6224214;23;20024;-90
2023/03/20 02:37:02;;;;;;;1.40;1.30;;;7.30;11.10;;;;;;6224995;23;20098;-90
2023/03/20 02:40:20;;;;;;;2.72;1.10;;;7.30;42.10;;;;;;6224384;23;20090;-91
2023/03/20 02:43:23;;;;;;;1.05;0.98;;;7.30;1.00;;;;;;6225357;23;20028;-90
2023/03/20 02:46:31;;;;;;;2.15;0.90;;;7.30;29.60;;;;;;6223966;23;20033;-91
2023/03/20 02:49:57;;;;;;;0.80;0.80;;;7.30;1.00;;;;;;6226908;23;20039;-91
2023/03/20 02:53:07;;;;;;;0.90;0.90;;;7.30;1.00;;;;;;6223168;23;20021;-90
2023/03/20 02:57:02;;;;;;;;;;;;;;;;;;;;;
2023/03/20 03:00:19;;;;;;;1.02;1.02;;;7.30;1.00;;;;;;6133037;23;20030;-91
2023/03/20 03:03:21;;;;;;;1.13;1.02;;;7.30;1.00;;;;;;6134104;23;20026;-90
2023/03/20 03:06:54;;;;;;;;;;;;;;;;;;;;;
2023/03/20 03:10:36;;;;;;;0.90;0.90;;;7.20;1.00;;;;;;6150881;23;20032;-91
2023/03/20 03:14:14;;;;;;;1.83;0.90;;;7.20;1.00;;;;;;6125765;23;20037;-91
2023/03/20 03:17:59;;;;;;;1.10;1.10;;;7.20;1.00;;;;;;6134836;23;20057;-92
2023/03/20 03:21:14;;;;;;;;;;;7.20;1.00;;;;;;6137974;23;20265;-91
2023/03/20 03:28:22;;;;;;;2.00;1.48;;;7.20;1.00;;;;;;6118654;23;20022;-92
2023/03/20 03:31:43;;;;;;;1.85;1.70;;;7.20;1.00;;;;;;6137040;23;20150;-92
2023/03/20 03:34:43;;;;;;;3.20;2.20;;;7.20;1.00;;;;;;6122325;23;20112;-91
2023/03/20 03:38:36;;;;;;;2.97;1.63;;;7.20;1.00;;;;;;6181679;23;20075;-91
2023/03/20 03:41:33;;;;;;;1.30;1.20;;;7.10;1.00;;;;;;6199984;23;20083;-92
2023/03/20 03:44:43;;;;;;;;;;;;;;;;;;;;;
2023/03/20 03:48:15;;;;;;;1.73;1.35;;;7.10;1.00;;;;;;6229168;23;20412;-90
2023/03/20 03:51:25;;;;;;;1.40;1.30;;;7.10;1.00;;;;;;6224281;23;20029;-88
2023/03/20 03:58:25;;;;;;;1.30;1.20;;;7.10;94.50;;;;;;6225629;23;19923;-90
2023/03/20 04:02:24;;;;;;;;;;;;;;;;;;;;;
2023/03/20 04:05:40;;;;;;;;;;;;;;;;;;;;;
2023/03/20 04:09:11;;;;;;;;;;;;;;;;;;;;;
2023/03/20 04:12:54;;;;;;;1.30;1.20;;;7.10;99.90;;;;;;6228874;23;20053;-91
2023/03/20 04:16:05;;;;;;;1.65;1.40;;;7.10;99.90;;;;;;6237764;23;20044;-91
2023/03/20 04:19:20;;;;;;;2.13;1.40;;;7.10;99.90;;;;;;6228641;23;20420;-92
2023/03/20 04:22:40;;;;;;;1.73;1.50;;;7.10;99.90;;;;;;6224454;23;20017;-91
2023/03/20 04:29:22;;;;;;;;;;;;;;;;;;;;;
2023/03/20 04:32:42;;;;;;;2.25;2.05;;;7.10;99.90;;;;;;6227735;23;20423;-90
2023/03/20 04:44:46;;;;;;;;;;;;;;;;;;;;;
2023/03/20 04:48:36;;;;;;;2.25;2.00;;;6.50;99.90;;;;;;6052023;23;20019;-88
2023/03/20 04:52:34;;;;;;;;;;;;;;;;;;;;;
2023/03/20 04:56:18;;;;;;;;;;;;;;;;;;;;;
2023/03/20 04:59:29;;;;;;;2.72;2.25;;;6.40;99.90;;;;;;6057210;23;20034;-90
2023/03/20 05:05:31;;;;;;;2.40;2.20;;;6.30;1.00;;;;;;6261180;22;20043;-89
2023/03/20 05:08:19;;;;;;;2.58;2.38;;;6.30;30.30;;;;;;6231999;23;20342;-92
2023/03/20 05:11:21;;;;;;;3.90;2.30;;;6.40;46.40;;;;;;6224093;23;20043;-91
2023/03/20 05:14:30;;;;;;;2.78;2.40;;;6.40;13.20;;;;;;6252146;23;20035;-90
2023/03/20 05:17:28;;;;;;;2.60;2.40;;;6.50;35.40;;;;;;6250977;23;20051;-93
2023/03/20 05:20:20;;;;;;;2.70;2.45;;;6.60;1.00;;;;;;6230223;23;20051;-91
2023/03/20 05:23:23;;;;;;;2.60;2.40;;;6.60;1.00;;;;;;6245256;23;20034;-89
2023/03/20 05:26:12;;;;;;;2.67;2.20;;;6.60;1.00;;;;;;6262411;23;20028;-91
2023/03/20 05:29:09;;;;;;;2.33;2.13;;;6.70;99.90;;;;;;6258731;23;20662;-91
2023/03/20 05:32:11;;;;;;;2.83;2.20;;;6.70;99.90;;;;;;6226130;23;20020;-92
2023/03/20 05:35:09;;;;;;;2.85;2.60;;;6.70;62.50;;;;;;6249782;23;20056;-92
2023/03/20 05:37:59;;;;;;;3.42;2.42;;;6.70;1.00;;;;;;6227365;23;20303;-91
2023/03/20 05:40:48;;;;;;;4.32;2.47;;;6.60;67.40;;;;;;6250560;23;20030;-92
2023/03/20 05:43:36;;;;;;;2.47;2.25;;;6.60;17.80;;;;;;6251843;23;20081;-91
2023/03/20 05:46:26;;;;;;;6.38;2.30;;;6.60;99.90;;;;;;6249569;23;20056;-91
2023/03/20 05:49:13;;;;;;;3.28;2.50;;;6.60;99.90;;;;;;6231656;23;20074;-91
2023/03/20 05:52:02;;;;;;;5.03;2.55;;;6.60;1.00;;;;;;6245667;23;20084;-88
2023/03/20 05:54:52;;;;;;;4.65;2.33;;;6.70;99.90;;;;;;6248530;23;20446;-90
2023/03/20 05:57:39;;;;;;;4.00;2.63;;;6.70;99.90;;;;;;6249891;23;20028;-90
2023/03/20 06:00:27;;;;;;;3.17;2.30;;;6.80;99.90;;;;;;6225137;23;20082;-90
2023/03/20 06:03:14;;;;;;;7.05;2.63;;;6.90;99.90;;;;;;6229505;23;20374;-92
2023/03/20 06:06:03;;;;;;;4.55;2.55;;;6.90;1.00;;;;;;6247461;23;20024;-90
2023/03/20 06:08:50;;;;;;;7.13;2.50;;;6.90;1.00;;;;;;6251315;23;20032;-89
2023/03/20 06:11:40;;;;;;;2.47;2.25;;;7.00;99.90;;;;;;6252595;23;20319;-93
2023/03/20 06:14:28;;;;;;;3.05;2.70;;;7.00;99.90;;;;;;6262253;23;20055;-87
2023/03/20 06:17:17;;;;;;;2.72;2.53;;;7.10;45.00;;;;;;6244111;23;20054;-88
2023/03/20 06:20:05;;;;;;;4.28;2.55;;;7.20;1.00;;;;;;6242379;23;20024;-89
2023/03/20 06:22:52;;;;;;;5.00;3.05;;;7.20;99.90;;;;;;6247069;23;20064;-87
2023/03/20 06:25:41;;;;;;;3.10;2.67;;;7.30;99.90;;;;;;6267177;23;20024;-88
2023/03/20 06:28:28;;;;;;;3.92;2.50;;;7.30;99.90;;;;;;6237191;23;20085;-89
2023/03/20 06:31:18;;;;;;;6.53;2.90;;;7.40;1.00;;;;;;6237388;23;20057;-90
2023/03/20 06:34:06;;;;;;;4.70;2.80;;;7.40;1.00;;;;;;6254495;23;20424;-89
2023/03/20 06:37:03;;;;;;;2.80;2.50;;;7.40;99.90;;;;;;6249384;23;20032;-88
2023/03/20 06:39:50;;;;;;;3.03;2.50;;;7.40;99.90;;;;;;6246590;23;20024;-87
2023/03/20 06:55:54;;;;;;;2.85;2.30;;;8.20;99.90;;;;;;6160926;23;20038;-85
2023/03/20 07:08:25;;;;;;;2.60;2.40;;;8.80;99.90;;;;;;5952297;23;20019;-90
2023/03/20 07:11:38;;;;;;;2.47;2.28;;;8.90;99.90;;;;;;5932402;24;20466;-87
2023/03/20 07:23:26;;;;;;;2.60;2.20;;;9.40;1.00;;;;;;5850662;24;20104;-90
2023/03/20 07:32:01;;;;;;;;;;;;;;;;;;;;;
2023/03/20 07:36:05;;;;;;;;;;;;;;;;;;;;;
2023/03/20 07:47:51;;;;;;;;;;;;;;;;;;;;;
2023/03/20 07:51:12;;;;;;;2.20;2.00;;;9.20;99.90;;;;;;5817945;24;20027;-89
2023/03/20 15:26:30;;;;;;;2.05;1.77;;;12.20;98.80;;;;;;6254285;23;20093;-86
2023/03/20 15:29:36;;;;;;;2.13;1.90;;;12.00;97.40;;;;;;6104409;23;20030;-88
2023/03/20 15:32:26;;;;;;;3.13;1.70;;;11.90;97.60;;;;;;6125267;23;20016;-88
2023/03/20 15:35:22;;;;;;;2.50;1.48;;;11.90;99.90;;;;;;6157687;23;20025;-90
2023/03/20 15:38:14;;;;;;;1.70;1.60;;;11.90;99.70;;;;;;6169147;23;20425;-90
2023/03/20 15:41:34;;;;;;;2.35;1.70;;;11.80;98.50;;;;;;6168434;23;20040;-92
2023/03/20 15:44:26;;;;;;;3.03;1.70;;;11.80;99.90;;;;;;6166826;23;20176;-88
2023/03/20 15:47:19;;;;;;;3.28;1.88;;;11.70;99.40;;;;;;6172073;23;20084;-89
2023/03/20 15:50:11;;;;;;;;;;;11.80;99.70;;;;;;6199101;23;20483;-87
2023/03/20 15:52:59;;;;;;;1.70;1.50;;;11.80;99.00;;;;;;6199972;23;20315;-88
2023/03/20 15:56:04;;;;;;;2.13;1.90;;;11.70;98.50;;;;;;6194811;23;20029;-89
2023/03/20 15:59:05;;;;;;;3.55;1.95;;;11.80;99.90;;;;;;6202272;23;20060;-89
2023/03/20 16:02:01;;;;;;;4.32;2.25;;;11.90;99.90;;;;;;6248612;23;20447;-88
2023/03/20 16:04:53;;;;;;;3.38;2.20;;;11.90;99.90;;;;;;6248939;23;20024;-87
2023/03/20 16:07:43;;;;;;;4.47;2.05;;;12.00;98.80;;;;;;6228022;23;20055;-88
2023/03/20 16:10:36;;;;;;;3.53;2.05;;;12.00;98.20;;;;;;6227903;23;20028;-88
2023/03/20 16:13:27;;;;;;;6.90;2.00;;;11.90;98.10;;;;;;6249017;23;20028;-89
2023/03/20 16:16:33;;;;;;;2.72;2.30;;;11.80;99.90;;;;;;6226308;23;20083;-89
2023/03/20 16:19:20;;;;;;;4.93;2.40;;;11.60;99.90;;;;;;6247349;23;20723;-90
2023/03/20 16:22:32;;;;;;;3.10;1.77;;;11.70;99.90;;;;;;6247611;23;20028;-87
2023/03/20 16:25:36;;;;;;;8.82;3.00;;;11.80;99.90;;;;;;6251927;23;20103;-87
2023/03/20 16:28:27;;;;;;;4.13;2.53;;;11.70;99.90;;;;;;6231808;23;20020;-91
2023/03/20 16:31:30;;;;;;;2.40;2.13;;;11.70;99.90;;;;;;6248264;23;20435;-90
2023/03/20 16:34:22;;;;;;;6.00;2.63;;;11.60;99.90;;;;;;6228953;23;20028;-90
2023/03/20 16:37:27;;;;;;;5.88;3.17;;;11.60;99.90;;;;;;6246546;23;20107;-90
2023/03/20 16:40:17;;;;;;;3.60;3.08;;;11.50;99.90;;;;;;6226562;23;20024;-87
2023/03/20 16:43:23;;;;;;;5.85;2.55;;;11.40;99.90;;;;;;6231622;23;20024;-90
2023/03/20 16:46:19;;;;;;;6.05;2.10;;;11.30;99.90;;;;;;6247751;23;20051;-91
2023/03/20 16:49:28;;;;;;;3.97;2.83;;;11.20;99.90;;;;;;6224932;23;20335;-91
2023/03/20 16:52:23;;;;;;;5.43;3.80;;;11.10;99.90;;;;;;6247908;23;20028;-91
2023/03/20 16:55:16;;;;;;;4.03;2.80;;;11.00;99.90;;;;;;6232852;23;20028;-90
2023/03/20 16:58:06;;;;;;;4.25;3.25;;;10.90;99.90;;;;;;6263924;23;20020;-87
2023/03/20 17:01:00;;;;;;;6.38;3.08;;;10.70;99.90;;;;;;6232491;23;20095;-89
2023/03/20 17:03:54;;;;;;;5.38;2.95;;;10.60;99.90;;;;;;6229426;23;20024;-88
2023/03/20 17:06:52;;;;;;;5.93;2.90;;;10.50;99.90;;;;;;6229604;23;20027;-89
2023/03/20 17:09:59;;;;;;;6.20;3.47;;;10.30;99.90;;;;;;6248046;23;20082;-91
2023/03/20 17:12:51;;;;;;;5.13;2.90;;;10.20;99.90;;;;;;6224994;23;20089;-89
2023/03/20 17:15:39;;;;;;;9.02;4.40;;;10.10;99.90;;;;;;6247827;23;20028;-90
2023/03/20 17:18:27;;;;;;;7.80;4.88;;;10.00;99.90;;;;;;6224583;23;20040;-90
2023/03/20 17:21:17;;;;;;;7.53;3.90;;;10.00;99.90;;;;;;6224545;23;20028;-89
2023/03/20 17:24:04;;;;;;;7.07;4.13;;;9.90;99.90;;;;;;6245380;23;20031;-89
2023/03/20 17:26:54;;;;;;;6.05;3.55;;;9.90;99.90;;;;;;6224985;23;20035;-87
2023/03/20 17:29:42;;;;;;;6.03;3.50;;;9.90;99.90;;;;;;6246332;23;20028;-86
2023/03/20 17:32:29;;;;;;;8.90;4.32;;;9.90;99.90;;;;;;6230637;22;20062;-88
2023/03/20 17:35:19;;;;;;;9.05;3.97;;;9.80;99.90;;;;;;6227280;23;20034;-89
2023/03/20 17:38:24;;;;;;;8.75;4.80;;;9.80;99.90;;;;;;6226671;23;20024;-87
2023/03/20 17:41:17;;;;;;;11.23;5.40;;;9.80;99.90;;;;;;6242197;23;20046;-90
2023/03/20 17:44:04;;;;;;;13.75;6.75;;;9.70;99.90;;;;;;6244510;23;20120;-89
2023/03/20 17:46:54;;;;;;;8.43;4.40;;;9.60;99.90;;;;;;6246549;23;20043;-89
2023/03/20 17:49:46;;;;;;;8.02;3.65;;;9.50;99.90;;;;;;6247773;23;20020;-88
2023/03/20 17:52:36;;;;;;;9.57;3.73;;;9.50;99.90;;;;;;6228616;23;20063;-87
2023/03/20 17:55:24;;;;;;;4.63;2.90;;;9.50;99.90;;;;;;6248435;23;20271;-88
2023/03/20 17:58:21;;;;;;;4.40;2.78;;;9.40;99.90;;;;;;6223712;23;20490;-87
2023/03/20 18:01:09;;;;;;;4.20;2.70;;;9.30;99.90;;;;;;6223550;23;20360;-87
2023/03/20 18:03:58;;;;;;;4.45;3.00;;;9.20;99.90;;;;;;6245225;23;20031;-85
2023/03/20 18:07:08;;;;;;;6.10;3.53;;;9.20;99.90;;;;;;6242434;23;20119;-86
2023/03/20 18:09:55;;;;;;;4.65;3.22;;;9.20;99.90;;;;;;6246491;23;20371;-87
2023/03/20 18:12:43;;;;;;;7.50;3.80;;;9.20;99.90;;;;;;6244995;23;20113;-90
2023/03/20 18:15:30;;;;;;;5.57;3.65;;;9.20;99.90;;;;;;6244027;23;20119;-88
2023/03/20 18:18:21;;;;;;;4.80;3.25;;;9.20;99.90;;;;;;6245507;23;20031;-86
2023/03/20 18:21:10;;;;;;;7.30;3.60;;;9.20;99.90;;;;;;6223288;23;20441;-87
2023/03/20 18:23:58;;;;;;;6.60;3.10;;;9.30;99.90;;;;;;6247395;23;20377;-87
2023/03/20 18:26:46;;;;;;;7.05;4.18;;;9.20;99.90;;;;;;6242681;23;20058;-87
2023/03/20 18:29:35;;;;;;;6.13;3.83;;;9.20;99.90;;;;;;6246419;23;20024;-86
2023/03/20 18:32:22;;;;;;;5.30;4.10;;;9.20;99.90;;;;;;6246887;23;20047;-89
2023/03/20 18:35:12;;;;;;;7.10;3.88;;;9.20;99.90;;;;;;6244041;23;20024;-87
2023/03/20 18:38:00;;;;;;;7.30;4.07;;;9.20;99.90;;;;;;6222864;23;20020;-87
2023/03/20 18:40:48;;;;;;;6.68;4.10;;;9.10;99.90;;;;;;6247091;23;20119;-85
2023/03/20 18:43:36;;;;;;;4.10;3.22;;;9.10;99.90;;;;;;6245917;23;20027;-87
2023/03/20 18:46:24;;;;;;;8.55;4.40;;;9.00;99.90;;;;;;6245464;23;20028;-87
2023/03/20 18:49:18;;;;;;;3.88;3.33;;;8.90;99.90;;;;;;6223148;23;20024;-86
2023/03/20 18:52:05;;;;;;;5.75;3.78;;;8.90;99.90;;;;;;6226386;23;20039;-87
2023/03/20 18:54:53;;;;;;;6.13;4.25;;;8.80;99.90;;;;;;6246390;23;20024;-87
2023/03/20 18:57:42;;;;;;;7.80;4.32;;;8.70;99.90;;;;;;6225484;23;20031;-87
2023/03/20 19:00:39;;;;;;;7.63;4.20;;;8.70;99.90;;;;;;6247188;23;20024;-87
2023/03/20 19:03:37;;;;;;;9.18;4.55;;;8.70;99.90;;;;;;6244724;23;20024;-88
2023/03/20 19:06:28;;;;;;;6.65;4.53;;;8.70;99.90;;;;;;6246899;23;20024;-87
2023/03/20 19:09:17;;;;;;;6.88;4.60;;;8.70;99.90;;;;;;6244736;23;20035;-87
2023/03/20 19:12:07;;;;;;;6.72;4.57;;;8.60;99.90;;;;;;6247103;23;20028;-88
2023/03/20 19:14:55;;;;;;;5.68;4.10;;;8.60;99.90;;;;;;6245408;23;20035;-88
2023/03/20 19:17:42;;;;;;;6.10;4.18;;;8.60;99.90;;;;;;6247205;23;20304;-87
2023/03/20 19:20:46;;;;;;;7.28;3.85;;;8.60;99.90;;;;;;6249594;23;20020;-89
2023/03/20 19:23:52;;;;;;;6.82;4.70;;;8.60;99.90;;;;;;6224822;23;20027;-86
2023/03/20 19:26:39;;;;;;;6.82;4.72;;;8.60;99.90;;;;;;6245502;23;20103;-88
2023/03/20 19:29:32;;;;;;;6.05;4.65;;;8.60;99.90;;;;;;6247069;23;20047;-88
2023/03/20 19:32:20;;;;;;;7.85;4.72;;;8.50;99.90;;;;;;6245101;23;20024;-86
2023/03/20 19:35:12;;;;;;;10.05;4.90;;;8.40;99.90;;;;;;6240652;23;20024;-86
2023/03/20 19:38:41;;;;;;;8.55;4.75;;;8.40;99.90;;;;;;6247976;23;20024;-85
2023/03/20 19:41:49;;;;;;;7.00;4.75;;;8.40;99.90;;;;;;6247182;23;20016;-87
2023/03/20 19:44:42;;;;;;;7.22;4.22;;;8.40;99.90;;;;;;6248418;23;20024;-88
2023/03/20 19:47:48;;;;;;;5.65;4.40;;;8.50;99.90;;;;;;6244576;23;20490;-87
2023/03/20 19:50:36;;;;;;;6.78;5.15;;;8.50;99.90;;;;;;6247620;23;20024;-87
2023/03/20 19:53:31;;;;;;;9.02;5.43;;;8.50;99.90;;;;;;6245560;23;20396;-87
2023/03/20 19:56:25;;;;;;;6.68;4.70;;;8.50;99.90;;;;;;6246365;23;20110;-86
2023/03/20 19:59:14;;;;;;;7.97;5.85;;;8.50;99.90;;;;;;6247867;23;20024;-86
2023/03/20 20:02:05;;;;;;;10.15;4.90;;;8.40;1.00;;;;;;6248342;23;20292;-87
2023/03/20 20:04:56;;;;;;;8.25;5.10;;;8.40;1.00;;;;;;6223200;23;20416;-86
2023/03/20 20:07:49;;;;;;;10.55;4.97;;;8.40;1.00;;;;;;6246157;23;20051;-85
2023/03/20 20:10:59;;;;;;;7.18;4.72;;;8.40;1.00;;;;;;6246700;23;20320;-87
2023/03/20 20:13:57;;;;;;;14.77;4.95;;;8.40;1.00;;;;;;6246328;23;20031;-86
2023/03/20 20:17:03;;;;;;;8.32;5.35;;;8.40;1.00;;;;;;6245986;23;20034;-87
2023/03/20 20:19:53;;;;;;;9.23;5.85;;;8.40;1.00;;;;;;6244860;23;20103;-86
2023/03/20 20:22:41;;;;;;;8.70;5.95;;;8.50;1.00;;;;;;6245886;23;20050;-87
2023/03/20 20:25:32;;;;;;;6.10;4.88;;;8.50;1.00;;;;;;6246064;23;20028;-86
2023/03/20 20:28:23;;;;;;;7.88;5.22;;;8.50;1.00;;;;;;6244743;23;20070;-87
2023/03/20 20:31:42;;;;;;;7.07;4.55;;;8.50;1.00;;;;;;6245920;23;20034;-87
2023/03/20 20:34:30;;;;;;;6.15;4.40;;;8.40;99.90;;;;;;6248829;23;20024;-87
2023/03/20 20:37:41;;;;;;;6.63;4.32;;;8.30;99.90;;;;;;6232569;23;20036;-88
2023/03/20 20:40:51;;;;;;;9.38;5.63;;;8.20;99.90;;;;;;6245558;23;20087;-87
2023/03/20 20:43:38;;;;;;;10.80;6.40;;;8.10;1.00;;;;;;6244307;23;20030;-87
2023/03/20 20:46:45;;;;;;;8.98;5.75;;;8.10;1.00;;;;;;6244873;23;20085;-86
2023/03/20 20:49:33;;;;;;;11.18;5.55;;;8.10;1.00;;;;;;6243824;23;20031;-86
2023/03/20 20:52:22;;;;;;;10.50;4.80;;;8.20;1.00;;;;;;6221725;23;20051;-85
2023/03/20 20:55:19;;;;;;;16.13;9.93;;;8.20;1.00;;;;;;6243560;23;20028;-86
2023/03/20 20:58:11;;;;;;;12.15;7.40;;;8.20;1.00;;;;;;6243859;23;20039;-85
2023/03/20 21:01:05;;;;;;;19.27;9.07;;;8.30;1.00;;;;;;6248666;22;20107;-85
2023/03/20 21:04:03;;;;;;;9.18;6.05;;;8.30;1.00;;;;;;6247176;23;20030;-84
2023/03/20 21:06:56;;;;;;;8.40;5.03;;;8.30;1.00;;;;;;6245906;23;20023;-85
2023/03/20 21:09:56;;;;;;;8.23;3.95;;;8.30;1.00;;;;;;6246874;23;20024;-85
2023/03/20 21:12:44;;;;;;;8.95;4.30;;;8.30;1.00;;;;;;6227641;23;20034;-85
2023/03/20 21:15:45;;;;;;;8.43;5.47;;;8.30;1.00;;;;;;6248468;23;20024;-85
2023/03/20 21:18:34;;;;;;;8.35;5.47;;;8.30;1.00;;;;;;6243948;23;20039;-85
2023/03/20 21:21:21;;;;;;;7.78;4.57;;;8.30;1.00;;;;;;6245259;23;20024;-86
2023/03/20 21:24:11;;;;;;;8.20;4.22;;;8.30;1.00;;;;;;6242959;23;20024;-85
2023/03/20 21:27:20;;;;;;;5.68;4.35;;;8.30;1.00;;;;;;6243486;23;20043;-85
2023/03/20 21:30:08;;;;;;;6.88;4.32;;;8.20;1.00;;;;;;6244203;23;20027;-86
2023/03/20 21:32:56;;;;;;;7.00;4.32;;;8.20;1.00;;;;;;6242951;23;20044;-86
2023/03/20 21:35:50;;;;;;;5.82;3.83;;;8.10;1.00;;;;;;6243527;23;20024;-86
2023/03/20 21:38:40;;;;;;;7.93;4.05;;;8.10;1.00;;;;;;6245887;23;20450;-86
2023/03/20 21:41:48;;;;;;;5.10;3.92;;;8.20;1.00;;;;;;6243245;23;20024;-85
2023/03/20 21:44:36;;;;;;;5.85;4.10;;;8.30;1.00;;;;;;6243880;23;20027;-85
2023/03/20 21:47:44;;;;;;;4.80;3.63;;;8.20;1.00;;;;;;6242054;23;20028;-86
2023/03/20 21:50:52;;;;;;;4.75;3.53;;;8.20;1.00;;;;;;6243472;23;20162;-86
2023/03/20 21:54:00;;;;;;;4.95;3.53;;;8.20;1.00;;;;;;6243452;23;20471;-85
2023/03/20 21:57:08;;;;;;;4.32;3.40;;;8.20;1.00;;;;;;6243605;23;20110;-86
2023/03/20 22:00:18;;;;;;;5.78;3.72;;;8.20;1.00;;;;;;6228810;23;20031;-86
2023/03/20 22:03:26;;;;;;;4.82;3.78;;;8.20;1.00;;;;;;6245767;23;20024;-85
2023/03/20 22:06:35;;;;;;;4.68;3.70;;;8.20;1.00;;;;;;6245434;23;20062;-85
2023/03/20 22:09:42;;;;;;;7.22;5.38;;;8.10;1.00;;;;;;6250069;23;20028;-85
2023/03/20 22:12:49;;;;;;;5.78;4.65;;;8.10;1.00;;;;;;6245329;23;20031;-85
2023/03/20 22:15:57;;;;;;;6.88;4.45;;;8.10;1.00;;;;;;6246890;23;20028;-84
2023/03/20 22:19:04;;;;;;;7.70;4.20;;;8.00;1.00;;;;;;6250448;23;20335;-84
2023/03/20 22:22:13;;;;;;;5.72;4.60;;;8.00;1.00;;;;;;6232535;23;20338;-85
2023/03/20 22:25:20;;;;;;;8.40;4.25;;;8.00;1.00;;;;;;6244260;23;20307;-83
2023/03/20 22:28:29;;;;;;;6.32;4.40;;;8.00;1.00;;;;;;6244633;23;20020;-85
2023/03/20 22:31:36;;;;;;;8.43;3.85;;;8.10;1.00;;;;;;6247501;23;20028;-84
2023/03/20 22:34:44;;;;;;;6.20;4.10;;;8.10;1.00;;;;;;6245714;23;20032;-85
2023/03/20 22:37:51;;;;;;;5.20;4.03;;;8.20;1.00;;;;;;6245992;23;20042;-84
2023/03/20 22:40:58;;;;;;;4.68;3.63;;;8.20;1.00;;;;;;6245275;23;20478;-85
2023/03/20 22:44:06;;;;;;;5.95;3.75;;;8.20;1.00;;;;;;6245542;23;20169;-85
2023/03/20 22:47:14;;;;;;;6.72;4.20;;;8.20;1.00;;;;;;6246399;23;20020;-84
2023/03/20 22:50:01;;;;;;;4.80;3.97;;;8.10;1.00;;;;;;6223210;23;20055;-85
2023/03/20 22:52:52;;;;;;;4.50;3.75;;;8.20;1.00;;;;;;6244389;23;20024;-85
2023/03/20 22:55:42;;;;;;;7.30;4.35;;;8.20;1.00;;;;;;6245262;23;20028;-83
2023/03/20 22:58:31;;;;;;;4.53;3.85;;;8.20;1.00;;;;;;6223900;23;20035;-85
2023/03/20 23:01:18;;;;;;;4.88;4.20;;;8.20;1.00;;;;;;6247031;23;20028;-86
2023/03/20 23:04:10;;;;;;;9.65;4.85;;;8.10;1.00;;;;;;6247782;23;20021;-85
2023/03/20 23:06:57;;;;;;;9.05;4.72;;;8.10;1.00;;;;;;6246089;23;20020;-86
2023/03/20 23:09:50;;;;;;;6.57;3.90;;;8.20;1.00;;;;;;6225818;23;20340;-86
2023/03/20 23:12:37;;;;;;;5.05;4.38;;;8.20;1.00;;;;;;6245395;23;20020;-86
2023/03/20 23:15:24;;;;;;;5.80;4.05;;;8.20;1.00;;;;;;6227948;23;20059;-85
2023/03/20 23:18:13;;;;;;;7.50;3.97;;;8.20;1.00;;;;;;6247945;23;20378;-86
2023/03/20 23:21:01;;;;;;;5.45;3.97;;;8.20;1.00;;;;;;6243980;23;20043;-85
2023/03/20 23:23:48;;;;;;;7.57;4.57;;;8.20;1.00;;;;;;6245686;23;20020;-85
2023/03/20 23:26:38;;;;;;;5.88;4.22;;;8.10;1.00;;;;;;6245618;23;20308;-85
2023/03/20 23:29:25;;;;;;;9.35;4.82;;;8.10;1.00;;;;;;6224012;23;20400;-85
2023/03/20 23:32:12;;;;;;;5.80;4.50;;;8.10;1.00;;;;;;6224220;23;20024;-85
2023/03/20 23:35:02;;;;;;;6.78;4.07;;;8.00;1.00;;;;;;6248868;23;20024;-84
2023/03/20 23:37:49;;;;;;;9.95;4.43;;;8.00;1.00;;;;;;6246210;23;20111;-84
2023/03/20 23:40:36;;;;;;;6.05;4.32;;;8.00;1.00;;;;;;6243985;23;20031;-85
2023/03/20 23:43:24;;;;;;;6.32;4.13;;;8.00;1.00;;;;;;6243573;23;20481;-86
2023/03/20 23:46:14;;;;;;;5.28;3.83;;;8.00;1.00;;;;;;6246410;23;20035;-86
2023/03/20 23:49:05;;;;;;;10.80;4.53;;;8.00;1.00;;;;;;6245558;23;20024;-85
2023/03/20 23:51:52;;;;;;;6.70;3.90;;;8.00;1.00;;;;;;6244364;23;20099;-86
2023/03/20 23:54:44;;;;;;;6.97;4.25;;;8.00;1.00;;;;;;6246073;23;20020;-86
2023/03/20 23:57:31;;;;;;;5.68;3.88;;;8.00;1.00;;;;;;6245899;23;20039;-85
